Details From LIPB - Bolzano
To LOWI - Innsbruck Kranebitten
Flight Number -
Tags Routegen Generated
Created
Modified
Stats Distance 59 nm / 109 km
Max Altitude 200 ft / 61 m
Waypoints 5
Social Downloads 12
Likes 0
Share VATSIM

Download

Looking for another format? Having issues loading an existing format? Contact us
Advertisement - Login to hide

Notes

Departing runway 1 LIPB. Arriving runway 8 LOWI.

Route

LIPB +46.54_+011.35 +46.87_+011.44 +47.28_+011.57 LOWI

ID Type Via Altitude Latitude Longitude Leg Dist Tot Dist Heading (true) Name
O LIPB APT - 200 ft / 61 m 46.46583˚ 11.32786˚ - 0 nm - -
+46.54_+011.35 DME - 200 ft / 61 m 46.53705˚ 11.34651˚ 4 nm 4 nm 10° / 10° -
+46.87_+011.44 DME - 200 ft / 61 m 46.87087˚ 11.44469˚ 20 nm 24 nm 11° / 11° -
+47.28_+011.57 DME - 200 ft / 61 m 47.28397˚ 11.56777˚ 25 nm 50 nm 11° / 12° -
O LOWI APT - 0 ft / 0 m 47.26162˚ 11.35702˚ 8 nm 58 nm 261° / 261° -

Altitude Profile

Advertisement - Login to hide

LIPB

Details ICAO LIPB (BZO)
Name BOLZANO
Region Italy
Timezone Europe/Rome (UTC+1.0)
Stats Elevation 789 ft / 240 m (AMSL)
Location 46.458906° 11.326862°
Runways 2
Magnetic Variation 2.991° E

METAR

Not found

TAF

TAF LIPB 161700Z 1618/1718 VRB05KT 9999 SCT025

Decode

Departure Runways

ID Width Length Bearing (true) Bearing (mag) Surface Threshold Offset Overrun Length
01 98 ft / 30 m 4,257 ft / 1,297 m 10.21° 7.22° Asphalt 0 ft / 0 m 0 ft / 0 m
01R 66 ft / 20 m 2,292 ft / 698 m 10.57° 7.58° Grass 0 ft / 0 m 0 ft / 0 m
19 98 ft / 30 m 4,257 ft / 1,297 m 190.22° 187.23° Asphalt 200 ft / 61 m 0 ft / 0 m
19L 66 ft / 20 m 2,292 ft / 698 m 190.58° 187.59° Grass 0 ft / 0 m 0 ft / 0 m

LOWI

Details ICAO LOWI (INN)
Name Innsbruck Kranebitten
Region Austria
Timezone Europe/Vienna (UTC+1.0)
Stats Elevation 1,906 ft / 581 m (AMSL)
Location 47.260226° 11.343967°
Runways 1
Magnetic Variation 3.020° E

METAR

LOWI 170150Z AUTO VRB01KT 9999 -RASN FEW005 BKN007 M01/M02 Q1017

Decode

TAF

TAF LOWI 162315Z 1700/1724 VRB02KT 8000 FEW007 SCT012 BKN060 TX01/1713Z TNM01/1707Z TEMPO 1700/1710 27007KT 3000 -SN BR SCT005 BKN012 PROB40 TEMPO 1712/1716 30012G25KT FEW020 SCT060

Decode

Destination Runways

ID Width Length Bearing (true) Bearing (mag) Surface Threshold Offset Overrun Length
08 148 ft / 45 m 6,545 ft / 1,995 m 81.02° 78.00° Asphalt 338 ft / 103 m 0 ft / 0 m
26 148 ft / 45 m 6,545 ft / 1,995 m 261.04° 258.02° Asphalt 0 ft / 0 m 0 ft / 0 m

Approach Navaids

Runway Type Ident Frequency Range Bearing (true) Bearing (mag) Slope Elevation
26 Localiser OEV 111.10 MHz 27 nm / 50 km 256.00° 252.98° - 1,906 ft / 581 m (AMSL)
26 Localiser OEJ 109.70 MHz 30 nm / 56 km 69.00° 65.98° - 1,906 ft / 581 m (AMSL)
26 Glidescope OEV 111.10 MHz 18 nm / 33 km 256.00° 252.98° 3.80° 1,911 ft / 582 m (AMSL)
26 DME OEJ 109.70 MHz 30 nm / 56 km - - - 1,906 ft / 581 m (AMSL)
26 DME OEV 111.10 MHz 27 nm / 50 km - - - 1,911 ft / 582 m (AMSL)

Popular Alternatives